sensor_id;sensor_type;location;lat;lon;timestamp;pressure;altitude;pressure_sealevel;temperature;humidity
73085;BME280;62974;49.460;10.892;2022-12-07T00:01:04;97811.53;;;1.78;100.00
73085;BME280;62974;49.460;10.892;2022-12-07T00:03:32;97804.03;;;1.73;100.00
73085;BME280;62974;49.460;10.892;2022-12-07T00:06:00;97803.28;;;1.81;100.00
73085;BME280;62974;49.460;10.892;2022-12-07T00:08:28;97807.66;;;2.00;100.00
73085;BME280;62974;49.460;10.892;2022-12-07T00:11:00;97801.78;;;1.78;100.00
73085;BME280;62974;49.460;10.892;2022-12-07T00:13:28;97803.41;;;1.79;100.00
73085;BME280;62974;49.460;10.892;2022-12-07T00:16:00;97809.00;;;1.76;100.00
73085;BME280;62974;49.460;10.892;2022-12-07T00:18:27;97797.38;;;1.97;100.00
73085;BME280;62974;49.460;10.892;2022-12-07T00:20:59;97799.78;;;1.53;100.00
73085;BME280;62974;49.460;10.892;2022-12-07T00:23:26;97792.69;;;1.81;100.00
73085;BME280;62974;49.460;10.892;2022-12-07T00:25:54;97796.59;;;1.86;100.00
73085;BME280;62974;49.460;10.892;2022-12-07T00:28:23;97797.53;;;1.58;100.00
73085;BME280;62974;49.460;10.892;2022-12-07T00:30:50;97796.09;;;1.64;100.00
73085;BME280;62974;49.460;10.892;2022-12-07T00:33:19;97789.91;;;2.10;100.00
73085;BME280;62974;49.460;10.892;2022-12-07T00:35:46;97789.53;;;1.68;100.00
73085;BME280;62974;49.460;10.892;2022-12-07T00:38:14;97802.03;;;1.75;100.00
73085;BME280;62974;49.460;10.892;2022-12-07T00:40:41;97794.78;;;1.40;100.00
73085;BME280;62974;49.460;10.892;2022-12-07T00:43:09;97796.22;;;1.72;100.00
73085;BME280;62974;49.460;10.892;2022-12-07T00:45:36;97785.72;;;1.80;100.00
73085;BME280;62974;49.460;10.892;2022-12-07T00:48:04;97793.34;;;1.93;100.00
73085;BME280;62974;49.460;10.892;2022-12-07T00:50:33;97793.44;;;1.64;100.00
73085;BME280;62974;49.460;10.892;2022-12-07T00:53:00;97790.34;;;2.05;100.00
73085;BME280;62974;49.460;10.892;2022-12-07T00:55:27;97795.09;;;1.74;100.00
73085;BME280;62974;49.460;10.892;2022-12-07T00:57:55;97796.94;;;1.64;100.00
73085;BME280;62974;49.460;10.892;2022-12-07T01:00:22;97795.72;;;1.59;100.00
73085;BME280;62974;49.460;10.892;2022-12-07T01:02:50;97792.78;;;1.62;100.00
73085;BME280;62974;49.460;10.892;2022-12-07T01:05:17;97789.84;;;1.65;100.00
73085;BME280;62974;49.460;10.892;2022-12-07T01:07:46;97791.81;;;1.63;100.00
73085;BME280;62974;49.460;10.892;2022-12-07T01:10:14;97796.38;;;1.70;100.00
73085;BME280;62974;49.460;10.892;2022-12-07T01:12:42;97802.28;;;1.55;100.00
73085;BME280;62974;49.460;10.892;2022-12-07T01:15:10;97794.06;;;1.48;100.00
73085;BME280;62974;49.460;10.892;2022-12-07T01:17:38;97789.81;;;1.74;100.00
73085;BME280;62974;49.460;10.892;2022-12-07T01:20:06;97794.28;;;1.64;100.00
73085;BME280;62974;49.460;10.892;2022-12-07T01:22:36;97796.19;;;1.81;100.00
73085;BME280;62974;49.460;10.892;2022-12-07T01:25:06;97807.22;;;1.67;100.00
73085;BME280;62974;49.460;10.892;2022-12-07T01:27:35;97797.34;;;1.69;100.00
73085;BME280;62974;49.460;10.892;2022-12-07T01:30:05;97794.19;;;1.56;100.00
73085;BME280;62974;49.460;10.892;2022-12-07T01:32:33;97797.91;;;1.63;100.00
73085;BME280;62974;49.460;10.892;2022-12-07T01:35:01;97799.81;;;1.80;100.00
73085;BME280;62974;49.460;10.892;2022-12-07T01:37:34;97800.94;;;2.05;100.00
73085;BME280;62974;49.460;10.892;2022-12-07T01:40:02;97793.66;;;1.80;100.00
73085;BME280;62974;49.460;10.892;2022-12-07T01:42:32;97796.00;;;1.56;100.00
73085;BME280;62974;49.460;10.892;2022-12-07T01:48:10;97797.59;;;1.76;100.00
73085;BME280;62974;49.460;10.892;2022-12-07T01:50:39;97794.56;;;1.71;100.00
73085;BME280;62974;49.460;10.892;2022-12-07T01:53:09;97793.88;;;1.69;100.00
73085;BME280;62974;49.460;10.892;2022-12-07T01:55:42;97788.47;;;1.88;100.00
73085;BME280;62974;49.460;10.892;2022-12-07T01:58:13;97796.38;;;1.98;100.00
73085;BME280;62974;49.460;10.892;2022-12-07T02:00:41;97786.56;;;1.80;100.00
73085;BME280;62974;49.460;10.892;2022-12-07T02:03:11;97785.56;;;1.54;100.00
73085;BME280;62974;49.460;10.892;2022-12-07T02:05:43;97788.91;;;1.83;100.00
73085;BME280;62974;49.460;10.892;2022-12-07T02:08:12;97786.13;;;1.48;100.00
73085;BME280;62974;49.460;10.892;2022-12-07T02:10:39;97786.53;;;1.90;100.00
73085;BME280;62974;49.460;10.892;2022-12-07T02:13:12;97791.09;;;1.70;100.00
73085;BME280;62974;49.460;10.892;2022-12-07T02:15:47;97800.97;;;1.68;100.00
73085;BME280;62974;49.460;10.892;2022-12-07T02:18:25;97797.09;;;1.63;100.00
73085;BME280;62974;49.460;10.892;2022-12-07T02:21:04;97795.00;;;1.66;100.00
73085;BME280;62974;49.460;10.892;2022-12-07T02:23:43;97790.13;;;1.62;100.00
73085;BME280;62974;49.460;10.892;2022-12-07T02:26:46;97797.22;;;1.71;100.00
73085;BME280;62974;49.460;10.892;2022-12-07T02:29:21;97788.56;;;1.69;100.00
73085;BME280;62974;49.460;10.892;2022-12-07T02:31:56;97784.72;;;2.18;100.00
73085;BME280;62974;49.460;10.892;2022-12-07T02:34:33;97783.88;;;1.90;100.00
73085;BME280;62974;49.460;10.892;2022-12-07T02:37:09;97778.94;;;2.05;100.00
73085;BME280;62974;49.460;10.892;2022-12-07T02:39:43;97786.13;;;2.12;100.00
73085;BME280;62974;49.460;10.892;2022-12-07T02:42:15;97780.34;;;2.26;100.00
73085;BME280;62974;49.460;10.892;2022-12-07T02:44:46;97774.47;;;2.05;100.00
73085;BME280;62974;49.460;10.892;2022-12-07T02:47:17;97781.06;;;1.92;100.00
73085;BME280;62974;49.460;10.892;2022-12-07T02:49:47;97768.28;;;2.14;100.00
73085;BME280;62974;49.460;10.892;2022-12-07T02:52:16;97768.88;;;1.81;100.00
73085;BME280;62974;49.460;10.892;2022-12-07T02:54:44;97761.28;;;2.23;100.00
73085;BME280;62974;49.460;10.892;2022-12-07T02:57:25;97754.81;;;2.25;100.00
73085;BME280;62974;49.460;10.892;2022-12-07T03:00:03;97752.47;;;2.22;100.00
73085;BME280;62974;49.460;10.892;2022-12-07T03:02:39;97729.63;;;2.39;100.00
73085;BME280;62974;49.460;10.892;2022-12-07T03:05:27;97724.41;;;2.29;100.00
73085;BME280;62974;49.460;10.892;2022-12-07T03:08:02;97728.63;;;2.40;99.99
73085;BME280;62974;49.460;10.892;2022-12-07T03:10:35;97727.13;;;2.38;100.00
73085;BME280;62974;49.460;10.892;2022-12-07T03:13:11;97724.19;;;2.41;100.00
73085;BME280;62974;49.460;10.892;2022-12-07T03:15:45;97731.91;;;2.34;100.00
73085;BME280;62974;49.460;10.892;2022-12-07T03:18:16;97731.72;;;2.35;100.00
73085;BME280;62974;49.460;10.892;2022-12-07T03:20:46;97730.44;;;2.40;99.76
73085;BME280;62974;49.460;10.892;2022-12-07T03:23:16;97727.28;;;2.18;100.00
73085;BME280;62974;49.460;10.892;2022-12-07T03:25:47;97715.25;;;1.79;100.00
73085;BME280;62974;49.460;10.892;2022-12-07T03:28:27;97717.13;;;2.14;100.00
73085;BME280;62974;49.460;10.892;2022-12-07T03:31:00;97708.81;;;2.26;100.00
73085;BME280;62974;49.460;10.892;2022-12-07T03:33:33;97706.25;;;2.34;99.51
73085;BME280;62974;49.460;10.892;2022-12-07T03:36:06;97712.53;;;2.33;99.49
73085;BME280;62974;49.460;10.892;2022-12-07T03:38:38;97708.66;;;2.10;99.12
73085;BME280;62974;49.460;10.892;2022-12-07T03:41:09;97705.63;;;2.05;99.90
73085;BME280;62974;49.460;10.892;2022-12-07T03:43:39;97704.81;;;2.22;98.81
73085;BME280;62974;49.460;10.892;2022-12-07T03:46:17;97696.47;;;2.17;99.82
73085;BME280;62974;49.460;10.892;2022-12-07T03:48:50;97701.78;;;2.17;99.98
73085;BME280;62974;49.460;10.892;2022-12-07T03:51:25;97705.78;;;2.21;99.42
73085;BME280;62974;49.460;10.892;2022-12-07T03:53:57;97703.53;;;2.26;98.94
73085;BME280;62974;49.460;10.892;2022-12-07T03:56:27;97702.59;;;2.18;98.52
73085;BME280;62974;49.460;10.892;2022-12-07T03:58:56;97695.84;;;2.23;98.73
73085;BME280;62974;49.460;10.892;2022-12-07T04:01:25;97700.53;;;2.12;99.24
73085;BME280;62974;49.460;10.892;2022-12-07T04:03:54;97698.28;;;1.72;99.37
73085;BME280;62974;49.460;10.892;2022-12-07T04:06:22;97711.31;;;2.10;100.00
73085;BME280;62974;49.460;10.892;2022-12-07T04:08:49;97702.41;;;1.84;99.82
73085;BME280;62974;49.460;10.892;2022-12-07T04:11:17;97715.34;;;1.60;99.47
73085;BME280;62974;49.460;10.892;2022-12-07T04:13:44;97738.22;;;1.14;100.00
73085;BME280;62974;49.460;10.892;2022-12-07T04:16:31;97722.78;;;2.01;100.00
73085;BME280;62974;49.460;10.892;2022-12-07T04:18:58;97736.34;;;1.71;100.00
73085;BME280;62974;49.460;10.892;2022-12-07T04:21:26;97745.53;;;0.74;100.00
73085;BME280;62974;49.460;10.892;2022-12-07T04:23:53;97730.13;;;1.53;100.00
73085;BME280;62974;49.460;10.892;2022-12-07T04:26:21;97726.41;;;2.00;100.00
73085;BME280;62974;49.460;10.892;2022-12-07T04:28:48;97726.28;;;2.02;100.00
73085;BME280;62974;49.460;10.892;2022-12-07T04:31:16;97733.63;;;1.80;99.31
73085;BME280;62974;49.460;10.892;2022-12-07T04:33:44;97724.47;;;2.02;99.48
73085;BME280;62974;49.460;10.892;2022-12-07T04:36:12;97725.22;;;2.12;99.08
73085;BME280;62974;49.460;10.892;2022-12-07T04:38:39;97718.16;;;2.03;99.61
73085;BME280;62974;49.460;10.892;2022-12-07T04:41:07;97714.31;;;1.98;99.10
73085;BME280;62974;49.460;10.892;2022-12-07T04:43:36;97715.16;;;1.98;99.73
73085;BME280;62974;49.460;10.892;2022-12-07T04:46:04;97717.44;;;1.83;100.00
73085;BME280;62974;49.460;10.892;2022-12-07T04:48:31;97717.09;;;1.96;99.49
73085;BME280;62974;49.460;10.892;2022-12-07T04:51:02;97717.72;;;2.08;98.88
73085;BME280;62974;49.460;10.892;2022-12-07T04:53:29;97724.59;;;2.01;99.73
73085;BME280;62974;49.460;10.892;2022-12-07T04:55:57;97723.53;;;2.11;99.84
73085;BME280;62974;49.460;10.892;2022-12-07T04:58:24;97718.09;;;1.68;99.19
73085;BME280;62974;49.460;10.892;2022-12-07T05:00:53;97720.41;;;1.80;99.58
73085;BME280;62974;49.460;10.892;2022-12-07T05:03:21;97719.16;;;2.02;100.00
73085;BME280;62974;49.460;10.892;2022-12-07T05:05:49;97720.75;;;2.13;99.37
73085;BME280;62974;49.460;10.892;2022-12-07T05:08:18;97724.81;;;2.07;98.80
73085;BME280;62974;49.460;10.892;2022-12-07T05:10:45;97725.53;;;2.09;98.45
73085;BME280;62974;49.460;10.892;2022-12-07T05:13:13;97725.66;;;2.08;99.08
73085;BME280;62974;49.460;10.892;2022-12-07T05:15:40;97714.03;;;2.18;98.55
73085;BME280;62974;49.460;10.892;2022-12-07T05:18:08;97707.72;;;2.19;98.06
73085;BME280;62974;49.460;10.892;2022-12-07T05:20:38;97713.88;;;2.02;99.08
73085;BME280;62974;49.460;10.892;2022-12-07T05:23:08;97711.50;;;1.99;99.11
73085;BME280;62974;49.460;10.892;2022-12-07T05:25:37;97710.72;;;1.89;98.87
73085;BME280;62974;49.460;10.892;2022-12-07T05:28:05;97723.00;;;2.08;99.04
73085;BME280;62974;49.460;10.892;2022-12-07T05:30:32;97715.50;;;1.85;100.00
73085;BME280;62974;49.460;10.892;2022-12-07T05:33:00;97728.09;;;1.47;100.00
73085;BME280;62974;49.460;10.892;2022-12-07T05:35:29;97720.78;;;1.85;100.00
73085;BME280;62974;49.460;10.892;2022-12-07T05:37:56;97718.28;;;1.84;99.41
73085;BME280;62974;49.460;10.892;2022-12-07T05:40:24;97718.00;;;1.87;99.75
73085;BME280;62974;49.460;10.892;2022-12-07T05:42:53;97723.00;;;1.90;100.00
73085;BME280;62974;49.460;10.892;2022-12-07T05:45:28;97722.72;;;2.11;98.74
73085;BME280;62974;49.460;10.892;2022-12-07T05:47:55;97717.81;;;1.71;99.33
73085;BME280;62974;49.460;10.892;2022-12-07T05:50:23;97713.88;;;2.02;99.65
73085;BME280;62974;49.460;10.892;2022-12-07T05:52:51;97707.78;;;1.92;99.01
73085;BME280;62974;49.460;10.892;2022-12-07T05:55:18;97707.06;;;1.72;100.00
73085;BME280;62974;49.460;10.892;2022-12-07T05:57:46;97700.16;;;1.89;100.00
73085;BME280;62974;49.460;10.892;2022-12-07T06:00:29;97707.88;;;1.55;100.00
73085;BME280;62974;49.460;10.892;2022-12-07T06:02:56;97706.97;;;2.09;99.96
73085;BME280;62974;49.460;10.892;2022-12-07T06:05:24;97715.69;;;1.74;100.00
73085;BME280;62974;49.460;10.892;2022-12-07T06:07:51;97713.38;;;1.89;100.00
73085;BME280;62974;49.460;10.892;2022-12-07T06:10:19;97718.72;;;1.52;100.00
73085;BME280;62974;49.460;10.892;2022-12-07T06:12:46;97711.63;;;1.16;100.00
73085;BME280;62974;49.460;10.892;2022-12-07T06:15:13;97706.06;;;1.83;100.00
73085;BME280;62974;49.460;10.892;2022-12-07T06:17:42;97701.38;;;1.67;100.00
73085;BME280;62974;49.460;10.892;2022-12-07T06:20:09;97699.09;;;1.82;100.00
73085;BME280;62974;49.460;10.892;2022-12-07T06:22:37;97690.56;;;1.61;100.00
73085;BME280;62974;49.460;10.892;2022-12-07T06:25:05;97694.31;;;1.85;100.00
73085;BME280;62974;49.460;10.892;2022-12-07T06:27:34;97691.81;;;1.57;100.00
73085;BME280;62974;49.460;10.892;2022-12-07T06:30:02;97694.97;;;1.70;100.00
73085;BME280;62974;49.460;10.892;2022-12-07T06:32:32;97705.38;;;1.71;99.64
73085;BME280;62974;49.460;10.892;2022-12-07T06:35:01;97699.91;;;1.82;100.00
73085;BME280;62974;49.460;10.892;2022-12-07T06:37:29;97709.72;;;1.35;99.27
73085;BME280;62974;49.460;10.892;2022-12-07T06:39:56;97715.41;;;1.13;100.00
73085;BME280;62974;49.460;10.892;2022-12-07T06:42:24;97707.97;;;1.26;100.00
73085;BME280;62974;49.460;10.892;2022-12-07T06:44:54;97712.13;;;1.38;100.00
73085;BME280;62974;49.460;10.892;2022-12-07T06:47:21;97710.75;;;1.62;100.00
73085;BME280;62974;49.460;10.892;2022-12-07T06:50:09;97714.16;;;1.72;99.91
73085;BME280;62974;49.460;10.892;2022-12-07T06:52:37;97718.06;;;1.50;100.00
73085;BME280;62974;49.460;10.892;2022-12-07T06:55:06;97716.28;;;1.31;99.92
73085;BME280;62974;49.460;10.892;2022-12-07T06:57:33;97720.47;;;1.34;100.00
73085;BME280;62974;49.460;10.892;2022-12-07T07:00:02;97711.72;;;1.33;100.00
73085;BME280;62974;49.460;10.892;2022-12-07T07:02:30;97715.91;;;1.26;99.96
73085;BME280;62974;49.460;10.892;2022-12-07T07:04:58;97715.25;;;1.15;100.00
73085;BME280;62974;49.460;10.892;2022-12-07T07:07:27;97717.75;;;1.16;100.00
73085;BME280;62974;49.460;10.892;2022-12-07T07:09:54;97717.63;;;1.18;100.00
73085;BME280;62974;49.460;10.892;2022-12-07T07:12:22;97713.91;;;1.38;100.00
73085;BME280;62974;49.460;10.892;2022-12-07T07:14:50;97720.78;;;1.21;100.00
73085;BME280;62974;49.460;10.892;2022-12-07T07:17:17;97718.69;;;1.25;100.00
73085;BME280;62974;49.460;10.892;2022-12-07T07:19:44;97724.53;;;1.28;100.00
73085;BME280;62974;49.460;10.892;2022-12-07T07:22:12;97720.25;;;1.27;100.00
73085;BME280;62974;49.460;10.892;2022-12-07T07:24:41;97725.69;;;1.16;100.00
73085;BME280;62974;49.460;10.892;2022-12-07T07:27:08;97725.25;;;1.21;100.00
73085;BME280;62974;49.460;10.892;2022-12-07T07:29:36;97721.34;;;1.62;100.00
73085;BME280;62974;49.460;10.892;2022-12-07T07:32:04;97724.41;;;1.30;100.00
73085;BME280;62974;49.460;10.892;2022-12-07T07:34:32;97726.41;;;1.46;100.00
73085;BME280;62974;49.460;10.892;2022-12-07T07:37:00;97731.00;;;1.43;100.00
73085;BME280;62974;49.460;10.892;2022-12-07T07:39:27;97727.38;;;1.45;100.00
73085;BME280;62974;49.460;10.892;2022-12-07T07:41:56;97729.69;;;1.30;100.00
73085;BME280;62974;49.460;10.892;2022-12-07T07:44:24;97729.84;;;1.56;100.00
73085;BME280;62974;49.460;10.892;2022-12-07T07:46:58;97731.16;;;1.42;100.00
73085;BME280;62974;49.460;10.892;2022-12-07T07:49:26;97730.44;;;1.77;100.00
73085;BME280;62974;49.460;10.892;2022-12-07T07:51:54;97721.84;;;1.75;100.00
73085;BME280;62974;49.460;10.892;2022-12-07T07:54:21;97730.00;;;1.54;100.00
73085;BME280;62974;49.460;10.892;2022-12-07T07:56:49;97734.34;;;1.46;100.00
73085;BME280;62974;49.460;10.892;2022-12-07T07:59:18;97728.72;;;1.31;100.00
73085;BME280;62974;49.460;10.892;2022-12-07T08:01:45;97733.75;;;1.52;100.00
73085;BME280;62974;49.460;10.892;2022-12-07T08:04:13;97730.22;;;1.70;100.00
73085;BME280;62974;49.460;10.892;2022-12-07T08:06:41;97735.94;;;1.66;100.00
73085;BME280;62974;49.460;10.892;2022-12-07T08:09:09;97738.25;;;1.51;100.00
73085;BME280;62974;49.460;10.892;2022-12-07T08:11:37;97742.16;;;1.74;100.00
73085;BME280;62974;49.460;10.892;2022-12-07T08:14:04;97742.16;;;1.74;100.00
73085;BME280;62974;49.460;10.892;2022-12-07T08:16:33;97739.09;;;1.79;100.00
73085;BME280;62974;49.460;10.892;2022-12-07T08:19:00;97736.44;;;1.79;100.00
73085;BME280;62974;49.460;10.892;2022-12-07T08:21:28;97743.69;;;1.77;100.00
73085;BME280;62974;49.460;10.892;2022-12-07T08:23:56;97746.75;;;1.72;100.00
73085;BME280;62974;49.460;10.892;2022-12-07T08:26:24;97745.06;;;1.81;100.00
73085;BME280;62974;49.460;10.892;2022-12-07T08:28:52;97750.88;;;1.84;100.00
73085;BME280;62974;49.460;10.892;2022-12-07T08:31:20;97755.97;;;1.68;100.00
73085;BME280;62974;49.460;10.892;2022-12-07T08:33:49;97760.09;;;1.80;100.00
73085;BME280;62974;49.460;10.892;2022-12-07T08:36:17;97746.97;;;1.88;100.00
73085;BME280;62974;49.460;10.892;2022-12-07T08:38:45;97753.97;;;1.80;100.00
73085;BME280;62974;49.460;10.892;2022-12-07T08:41:32;97749.22;;;1.83;100.00
73085;BME280;62974;49.460;10.892;2022-12-07T08:44:00;97747.66;;;1.91;100.00
73085;BME280;62974;49.460;10.892;2022-12-07T08:46:30;97744.19;;;1.90;100.00
73085;BME280;62974;49.460;10.892;2022-12-07T08:49:05;97741.00;;;1.86;100.00
73085;BME280;62974;49.460;10.892;2022-12-07T08:51:34;97742.69;;;2.05;100.00
73085;BME280;62974;49.460;10.892;2022-12-07T08:54:04;97748.44;;;2.01;100.00
73085;BME280;62974;49.460;10.892;2022-12-07T08:56:34;97753.63;;;1.93;100.00
73085;BME280;62974;49.460;10.892;2022-12-07T08:59:02;97756.03;;;1.86;100.00
73085;BME280;62974;49.460;10.892;2022-12-07T09:01:30;97769.19;;;1.78;100.00
73085;BME280;62974;49.460;10.892;2022-12-07T09:03:58;97761.47;;;1.84;100.00
73085;BME280;62974;49.460;10.892;2022-12-07T09:06:27;97758.81;;;1.84;100.00
73085;BME280;62974;49.460;10.892;2022-12-07T09:08:58;97757.84;;;1.85;100.00
73085;BME280;62974;49.460;10.892;2022-12-07T09:11:27;97764.44;;;1.72;100.00
73085;BME280;62974;49.460;10.892;2022-12-07T09:13:55;97761.44;;;1.67;100.00
73085;BME280;62974;49.460;10.892;2022-12-07T09:16:22;97767.25;;;1.70;100.00
73085;BME280;62974;49.460;10.892;2022-12-07T09:18:50;97773.19;;;1.82;100.00
73085;BME280;62974;49.460;10.892;2022-12-07T09:21:17;97775.09;;;1.62;100.00
73085;BME280;62974;49.460;10.892;2022-12-07T09:23:46;97770.97;;;1.50;100.00
73085;BME280;62974;49.460;10.892;2022-12-07T09:26:14;97775.84;;;1.82;100.00
73085;BME280;62974;49.460;10.892;2022-12-07T09:28:41;97767.63;;;1.75;100.00
73085;BME280;62974;49.460;10.892;2022-12-07T09:31:11;97771.75;;;1.87;100.00
73085;BME280;62974;49.460;10.892;2022-12-07T09:33:54;97766.31;;;2.16;100.00
73085;BME280;62974;49.460;10.892;2022-12-07T09:36:22;97766.44;;;1.97;100.00
73085;BME280;62974;49.460;10.892;2022-12-07T09:38:52;97766.97;;;2.01;100.00
73085;BME280;62974;49.460;10.892;2022-12-07T09:41:20;97765.50;;;1.88;100.00
73085;BME280;62974;49.460;10.892;2022-12-07T09:43:48;97760.50;;;1.85;100.00
73085;BME280;62974;49.460;10.892;2022-12-07T09:46:17;97761.66;;;2.01;100.00
73085;BME280;62974;49.460;10.892;2022-12-07T09:48:47;97761.63;;;2.10;100.00
73085;BME280;62974;49.460;10.892;2022-12-07T09:51:18;97750.09;;;2.19;100.00
73085;BME280;62974;49.460;10.892;2022-12-07T09:53:52;97755.75;;;2.34;100.00
73085;BME280;62974;49.460;10.892;2022-12-07T09:56:21;97756.19;;;2.29;100.00
73085;BME280;62974;49.460;10.892;2022-12-07T09:58:49;97740.81;;;2.33;100.00
73085;BME280;62974;49.460;10.892;2022-12-07T10:01:18;97752.09;;;2.17;100.00
73085;BME280;62974;49.460;10.892;2022-12-07T10:03:50;97748.31;;;2.20;100.00
73085;BME280;62974;49.460;10.892;2022-12-07T10:06:18;97740.31;;;2.29;100.00
73085;BME280;62974;49.460;10.892;2022-12-07T10:08:46;97749.56;;;2.16;100.00
73085;BME280;62974;49.460;10.892;2022-12-07T10:11:15;97749.56;;;2.16;100.00
73085;BME280;62974;49.460;10.892;2022-12-07T10:13:44;97747.00;;;2.06;100.00
73085;BME280;62974;49.460;10.892;2022-12-07T10:16:35;97743.53;;;2.23;100.00
73085;BME280;62974;49.460;10.892;2022-12-07T10:19:19;97742.16;;;2.19;100.00
73085;BME280;62974;49.460;10.892;2022-12-07T10:22:04;97744.53;;;2.22;100.00
73085;BME280;62974;49.460;10.892;2022-12-07T10:24:31;97750.03;;;2.11;100.00
73085;BME280;62974;49.460;10.892;2022-12-07T10:27:00;97742.16;;;2.19;100.00
73085;BME280;62974;49.460;10.892;2022-12-07T10:29:30;97743.16;;;2.18;100.00
73085;BME280;62974;49.460;10.892;2022-12-07T10:31:59;97727.06;;;2.29;100.00
73085;BME280;62974;49.460;10.892;2022-12-07T10:34:27;97733.03;;;2.31;100.00
73085;BME280;62974;49.460;10.892;2022-12-07T10:37:14;97722.66;;;2.20;100.00
73085;BME280;62974;49.460;10.892;2022-12-07T10:39:44;97721.22;;;2.26;100.00
73085;BME280;62974;49.460;10.892;2022-12-07T10:42:18;97724.41;;;2.29;100.00
73085;BME280;62974;49.460;10.892;2022-12-07T10:44:47;97721.53;;;2.23;100.00
73085;BME280;62974;49.460;10.892;2022-12-07T10:47:26;97720.78;;;2.30;100.00
73085;BME280;62974;49.460;10.892;2022-12-07T10:50:14;97715.63;;;2.29;100.00
73085;BME280;62974;49.460;10.892;2022-12-07T10:53:00;97712.97;;;2.29;100.00
73085;BME280;62974;49.460;10.892;2022-12-07T10:55:45;97720.84;;;2.39;100.00
73085;BME280;62974;49.460;10.892;2022-12-07T10:58:33;97717.91;;;2.42;100.00
73085;BME280;62974;49.460;10.892;2022-12-07T11:01:13;97717.13;;;2.31;100.00
73085;BME280;62974;49.460;10.892;2022-12-07T11:03:54;97716.47;;;2.29;100.00
73085;BME280;62974;49.460;10.892;2022-12-07T11:06:28;97710.94;;;2.23;100.00
73085;BME280;62974;49.460;10.892;2022-12-07T11:09:16;97706.38;;;2.33;100.00
73085;BME280;62974;49.460;10.892;2022-12-07T11:12:11;97704.31;;;2.27;100.00
73085;BME280;62974;49.460;10.892;2022-12-07T11:14:49;97702.00;;;2.42;100.00
73085;BME280;62974;49.460;10.892;2022-12-07T11:17:26;97698.91;;;2.46;100.00
73085;BME280;62974;49.460;10.892;2022-12-07T11:20:05;97697.81;;;2.39;100.00
73085;BME280;62974;49.460;10.892;2022-12-07T11:22:45;97698.66;;;2.40;100.00
73085;BME280;62974;49.460;10.892;2022-12-07T11:25:23;97697.75;;;2.49;100.00
73085;BME280;62974;49.460;10.892;2022-12-07T11:28:05;97692.13;;;2.52;100.00
73085;BME280;62974;49.460;10.892;2022-12-07T11:30:48;97694.72;;;2.61;100.00
73085;BME280;62974;49.460;10.892;2022-12-07T11:33:26;97688.13;;;2.48;100.00
73085;BME280;62974;49.460;10.892;2022-12-07T11:36:04;97695.31;;;2.55;100.00
73085;BME280;62974;49.460;10.892;2022-12-07T11:38:42;97687.16;;;2.49;100.00
73085;BME280;62974;49.460;10.892;2022-12-07T11:41:10;97687.16;;;2.49;100.00
73085;BME280;62974;49.460;10.892;2022-12-07T11:43:56;97686.56;;;2.37;100.00
73085;BME280;62974;49.460;10.892;2022-12-07T11:46:43;97687.53;;;2.54;100.00
73085;BME280;62974;49.460;10.892;2022-12-07T11:49:17;97679.59;;;2.54;100.00
73085;BME280;62974;49.460;10.892;2022-12-07T11:51:48;97673.59;;;2.52;100.00
73085;BME280;62974;49.460;10.892;2022-12-07T11:54:18;97675.19;;;2.62;100.00
73085;BME280;62974;49.460;10.892;2022-12-07T11:56:49;97671.09;;;2.50;100.00
73085;BME280;62974;49.460;10.892;2022-12-07T11:59:23;97670.09;;;2.51;100.00
73085;BME280;62974;49.460;10.892;2022-12-07T12:02:07;97673.59;;;2.52;100.00
73085;BME280;62974;49.460;10.892;2022-12-07T12:04:49;97669.97;;;2.53;100.00
73085;BME280;62974;49.460;10.892;2022-12-07T12:07:21;97663.00;;;2.52;100.00
73085;BME280;62974;49.460;10.892;2022-12-07T12:10:17;97667.75;;;2.48;100.00
73085;BME280;62974;49.460;10.892;2022-12-07T12:13:00;97666.72;;;2.41;100.00
73085;BME280;62974;49.460;10.892;2022-12-07T12:16:05;97661.50;;;2.49;100.00
73085;BME280;62974;49.460;10.892;2022-12-07T12:18:56;97659.75;;;2.58;100.00
73085;BME280;62974;49.460;10.892;2022-12-07T12:21:30;97664.25;;;2.65;100.00
73085;BME280;62974;49.460;10.892;2022-12-07T12:24:01;97658.50;;;2.70;100.00
73085;BME280;62974;49.460;10.892;2022-12-07T12:26:31;97647.38;;;2.66;100.00
73085;BME280;62974;49.460;10.892;2022-12-07T12:29:01;97654.63;;;2.64;100.00
73085;BME280;62974;49.460;10.892;2022-12-07T12:31:33;97650.50;;;2.62;100.00
73085;BME280;62974;49.460;10.892;2022-12-07T12:34:30;97647.59;;;2.55;100.00
73085;BME280;62974;49.460;10.892;2022-12-07T12:36:58;97646.03;;;2.45;100.00
73085;BME280;62974;49.460;10.892;2022-12-07T12:39:26;97643.59;;;2.51;100.00
73085;BME280;62974;49.460;10.892;2022-12-07T12:41:58;97645.59;;;2.49;100.00
73085;BME280;62974;49.460;10.892;2022-12-07T12:44:40;97642.47;;;2.54;100.00
73085;BME280;62974;49.460;10.892;2022-12-07T12:47:38;97648.44;;;2.56;100.00
73085;BME280;62974;49.460;10.892;2022-12-07T12:50:19;97645.13;;;2.54;100.00
73085;BME280;62974;49.460;10.892;2022-12-07T12:52:53;97647.72;;;2.46;100.00
73085;BME280;62974;49.460;10.892;2022-12-07T12:55:44;97648.25;;;2.49;100.00
73085;BME280;62974;49.460;10.892;2022-12-07T12:58:38;97633.56;;;2.55;100.00
73085;BME280;62974;49.460;10.892;2022-12-07T13:04:18;97640.53;;;2.38;100.00
73085;BME280;62974;49.460;10.892;2022-12-07T13:06:52;97641.38;;;2.39;100.00
73085;BME280;62974;49.460;10.892;2022-12-07T13:09:25;97634.91;;;2.41;100.00
73085;BME280;62974;49.460;10.892;2022-12-07T13:12:03;97634.22;;;2.39;100.00
73085;BME280;62974;49.460;10.892;2022-12-07T13:14:52;97630.22;;;2.53;100.00
73085;BME280;62974;49.460;10.892;2022-12-07T13:17:56;97629.63;;;2.41;100.00
73085;BME280;62974;49.460;10.892;2022-12-07T13:20:44;97626.47;;;2.38;100.00
73085;BME280;62974;49.460;10.892;2022-12-07T13:23:17;97619.81;;;2.33;100.00